createdAt,value
2019-04-30T00:01:48.550Z,22.13
2019-04-30T00:04:21.675Z,22.40
2019-04-30T00:06:50.252Z,21.40
2019-04-30T00:09:21.163Z,22.10
2019-04-30T00:11:50.723Z,21.60
2019-04-30T00:14:20.211Z,21.97
2019-04-30T00:16:55.078Z,21.82
2019-04-30T00:19:23.689Z,22.50
2019-04-30T00:21:56.930Z,22.20
2019-04-30T00:24:25.853Z,22.17
2019-04-30T00:26:55.127Z,21.77
2019-04-30T00:29:27.985Z,21.65
2019-04-30T00:32:03.712Z,22.45
2019-04-30T00:34:25.090Z,22.82
2019-04-30T00:36:55.968Z,22.48
2019-04-30T00:39:27.094Z,23.15
2019-04-30T00:41:56.692Z,23.22
2019-04-30T00:44:28.273Z,23.50
2019-04-30T00:46:55.918Z,22.87
2019-04-30T00:49:26.608Z,22.75
2019-04-30T00:51:58.161Z,24.30
2019-04-30T00:54:27.943Z,23.22
2019-04-30T00:56:59.357Z,23.55
2019-04-30T00:59:26.774Z,21.93
2019-04-30T01:02:06.118Z,23.05
2019-04-30T01:04:36.407Z,22.45
2019-04-30T01:07:08.667Z,23.12
2019-04-30T01:09:39.736Z,21.90
2019-04-30T01:12:06.591Z,23.05
2019-04-30T01:14:35.308Z,21.80
2019-04-30T01:17:08.213Z,22.30
2019-04-30T01:19:34.336Z,23.30
2019-04-30T01:22:02.968Z,21.10
2019-04-30T01:24:35.227Z,22.20
2019-04-30T01:27:06.743Z,22.15
2019-04-30T01:29:40.905Z,22.32
2019-04-30T01:32:05.273Z,21.57
2019-04-30T01:34:34.848Z,24.32
2019-04-30T01:37:03.433Z,23.02
2019-04-30T01:39:32.040Z,21.75
2019-04-30T01:42:02.967Z,21.23
2019-04-30T01:44:30.898Z,21.75
2019-04-30T01:46:59.481Z,22.40
2019-04-30T01:49:30.053Z,22.05
2019-04-30T01:52:00.492Z,21.52
2019-04-30T01:54:29.114Z,21.82
2019-04-30T01:57:15.815Z,19.85
2019-04-30T02:00:02.323Z,20.50
2019-04-30T02:02:32.634Z,20.05
2019-04-30T02:05:01.343Z,19.92
2019-04-30T02:07:29.908Z,19.07
2019-04-30T02:09:58.910Z,20.02
2019-04-30T02:12:29.499Z,19.62
2019-04-30T02:14:59.525Z,18.57
2019-04-30T02:17:29.293Z,18.73
2019-04-30T02:19:59.295Z,19.20
2019-04-30T02:22:30.903Z,19.32
2019-04-30T02:24:58.648Z,18.82
2019-04-30T02:27:30.948Z,18.10
2019-04-30T02:30:02.670Z,16.45
2019-04-30T02:32:30.534Z,16.77
2019-04-30T02:35:09.404Z,17.15
2019-04-30T02:37:40.411Z,16.20
2019-04-30T02:40:10.126Z,17.62
2019-04-30T02:42:44.685Z,16.70
2019-04-30T02:45:13.511Z,16.97
2019-04-30T02:47:42.420Z,16.35
2019-04-30T02:50:18.344Z,17.07
2019-04-30T02:52:43.605Z,15.90
2019-04-30T02:55:15.263Z,16.60
2019-04-30T02:57:44.184Z,16.30
2019-04-30T03:00:20.535Z,16.40
2019-04-30T03:02:50.483Z,16.85
2019-04-30T03:05:21.260Z,16.27
2019-04-30T03:07:53.143Z,16.70
2019-04-30T03:10:20.209Z,16.80
2019-04-30T03:12:49.977Z,15.95
2019-04-30T03:15:22.325Z,16.27
2019-04-30T03:18:02.260Z,14.85
2019-04-30T03:20:50.752Z,17.45
2019-04-30T03:23:19.636Z,16.25
2019-04-30T03:25:50.148Z,16.10
2019-04-30T03:28:20.147Z,16.90
2019-04-30T03:30:57.694Z,16.42
2019-04-30T03:33:25.919Z,16.65
2019-04-30T03:35:55.660Z,15.60
2019-04-30T03:38:25.338Z,16.77
2019-04-30T03:40:53.899Z,17.02
2019-04-30T03:43:22.520Z,16.65
2019-04-30T03:45:51.100Z,16.12
2019-04-30T03:48:20.226Z,16.65
2019-04-30T03:50:55.793Z,17.00
2019-04-30T03:53:20.195Z,16.95
2019-04-30T03:55:50.591Z,17.12
2019-04-30T03:58:21.157Z,17.10
2019-04-30T04:00:54.102Z,16.77
2019-04-30T04:03:22.673Z,17.07
2019-04-30T04:06:10.475Z,16.97
2019-04-30T04:08:43.231Z,16.07
2019-04-30T04:11:12.547Z,16.62
2019-04-30T04:13:41.164Z,16.37
2019-04-30T04:16:09.891Z,15.58
2019-04-30T04:18:40.202Z,17.05
2019-04-30T04:21:16.415Z,16.35
2019-04-30T04:23:39.873Z,15.55
2019-04-30T04:26:09.451Z,16.80
2019-04-30T04:28:43.124Z,14.93
2019-04-30T04:31:09.553Z,14.60
2019-04-30T04:33:39.554Z,16.27
2019-04-30T04:36:09.149Z,15.53
2019-04-30T04:38:40.328Z,14.98
2019-04-30T04:41:10.388Z,14.87
2019-04-30T04:43:40.152Z,13.75
2019-04-30T04:46:09.292Z,15.35
2019-04-30T04:48:39.465Z,14.75
2019-04-30T04:51:19.723Z,14.20
2019-04-30T04:53:40.191Z,13.90
2019-04-30T04:56:10.061Z,14.55
2019-04-30T04:58:40.168Z,14.63
2019-04-30T05:01:11.698Z,15.35
2019-04-30T05:03:39.881Z,15.30
2019-04-30T05:06:11.356Z,15.80
2019-04-30T05:08:39.616Z,15.83
2019-04-30T05:11:09.583Z,16.00
2019-04-30T05:13:38.912Z,15.23
2019-04-30T05:16:09.198Z,14.95
2019-04-30T05:18:39.139Z,14.75
2019-04-30T05:21:08.808Z,14.53
2019-04-30T05:23:39.310Z,13.43
2019-04-30T05:26:08.465Z,15.10
2019-04-30T05:28:39.350Z,14.20
2019-04-30T05:31:08.765Z,14.05
2019-04-30T05:33:38.955Z,14.85
2019-04-30T05:36:09.308Z,14.23
2019-04-30T05:38:39.222Z,14.03
2019-04-30T05:41:09.879Z,14.25
2019-04-30T05:43:38.734Z,14.53
2019-04-30T05:46:08.334Z,13.88
2019-04-30T05:48:39.602Z,14.90
2019-04-30T05:51:08.979Z,14.40
2019-04-30T05:53:39.303Z,14.20
2019-04-30T05:56:09.567Z,14.30
2019-04-30T05:58:39.760Z,13.88
2019-04-30T06:01:09.681Z,15.18
2019-04-30T06:03:38.673Z,14.80
2019-04-30T06:06:09.163Z,13.68
2019-04-30T06:08:50.880Z,14.63
2019-04-30T06:11:39.246Z,14.95
2019-04-30T06:14:20.784Z,13.50
2019-04-30T06:16:51.747Z,11.48
2019-04-30T06:19:20.638Z,13.90
2019-04-30T06:21:49.276Z,13.95
2019-04-30T06:24:18.780Z,14.73
2019-04-30T06:26:49.360Z,13.68
2019-04-30T06:29:18.962Z,13.58
2019-04-30T06:31:48.637Z,14.03
2019-04-30T06:34:17.424Z,12.68
2019-04-30T06:36:51.824Z,12.75
2019-04-30T06:39:18.783Z,12.28
2019-04-30T06:41:49.286Z,11.43
2019-04-30T06:44:19.467Z,12.00
2019-04-30T06:46:48.782Z,10.93
2019-04-30T06:49:21.222Z,11.90
2019-04-30T06:51:50.750Z,10.43
2019-04-30T06:54:21.240Z,11.25
2019-04-30T06:56:50.796Z,11.03
2019-04-30T06:59:20.328Z,10.13
2019-04-30T07:01:49.053Z,10.35
2019-04-30T07:04:19.358Z,10.28
2019-04-30T07:06:50.474Z,9.88
2019-04-30T07:09:26.818Z,10.53
2019-04-30T07:11:59.266Z,9.95
2019-04-30T07:17:03.215Z,9.28
2019-04-30T07:19:38.255Z,9.28
2019-04-30T07:22:02.005Z,9.23
2019-04-30T07:24:30.607Z,8.90
2019-04-30T07:27:02.662Z,9.85
2019-04-30T07:29:30.368Z,9.60
2019-04-30T07:32:00.508Z,9.03
2019-04-30T07:34:30.148Z,9.00
2019-04-30T07:37:11.795Z,8.18
2019-04-30T07:39:33.327Z,8.85
2019-04-30T07:42:00.851Z,7.90
2019-04-30T07:47:02.077Z,8.25
2019-04-30T07:49:46.186Z,8.03
2019-04-30T07:52:01.707Z,8.55
2019-04-30T07:54:30.869Z,7.67
2019-04-30T07:57:00.335Z,8.35
2019-04-30T07:59:30.172Z,7.37
2019-04-30T08:04:45.754Z,7.65
2019-04-30T08:07:14.649Z,7.60
2019-04-30T08:09:35.037Z,7.72
2019-04-30T08:09:38.407Z,8.50
2019-04-30T08:09:43.257Z,8.70
2019-04-30T08:12:21.771Z,7.67
2019-04-30T08:14:43.156Z,7.87
2019-04-30T08:17:11.737Z,7.90
2019-04-30T08:19:41.054Z,7.80
2019-04-30T08:22:09.824Z,8.13
2019-04-30T08:24:39.128Z,7.53
2019-04-30T08:27:09.697Z,8.03
2019-04-30T08:29:39.471Z,7.78
2019-04-30T08:32:09.059Z,7.80
2019-04-30T08:34:39.374Z,8.13
2019-04-30T08:37:17.045Z,7.47
2019-04-30T08:39:39.734Z,8.50
2019-04-30T08:42:08.974Z,7.75
2019-04-30T08:44:39.528Z,7.95
2019-04-30T08:47:08.619Z,7.45
2019-04-30T08:49:38.113Z,10.40
2019-04-30T08:52:07.740Z,8.03
2019-04-30T08:54:36.392Z,8.43
2019-04-30T08:57:05.944Z,8.45
2019-04-30T08:59:34.504Z,8.00
2019-04-30T09:02:13.611Z,8.23
2019-04-30T09:04:33.308Z,8.05
2019-04-30T09:07:01.876Z,8.93
2019-04-30T09:09:30.449Z,8.40
2019-04-30T09:11:59.298Z,8.55
2019-04-30T09:14:29.695Z,8.48
2019-04-30T09:16:59.580Z,8.58
2019-04-30T09:19:29.847Z,7.37
2019-04-30T09:21:59.103Z,7.60
2019-04-30T09:24:30.781Z,6.50
2019-04-30T09:26:59.080Z,7.87
2019-04-30T09:29:29.318Z,7.80
2019-04-30T09:31:59.445Z,7.35
2019-04-30T09:34:29.046Z,8.18
2019-04-30T09:36:58.897Z,8.78
2019-04-30T09:39:29.388Z,8.13
2019-04-30T09:41:59.519Z,7.83
2019-04-30T09:44:30.554Z,7.47
2019-04-30T09:46:58.835Z,7.62
2019-04-30T09:49:29.289Z,8.23
2019-04-30T09:51:59.518Z,7.85
2019-04-30T09:54:29.004Z,7.60
2019-04-30T09:56:59.018Z,7.47
2019-04-30T09:59:29.111Z,7.47
2019-04-30T10:01:57.846Z,8.25
2019-04-30T10:04:26.808Z,7.12
2019-04-30T10:06:56.142Z,7.70
2019-04-30T10:09:24.710Z,9.28
2019-04-30T10:12:06.941Z,7.85
2019-04-30T10:14:35.792Z,10.38
2019-04-30T10:17:23.608Z,7.12
2019-04-30T10:19:52.252Z,7.03
2019-04-30T10:22:21.889Z,6.92
2019-04-30T10:24:50.736Z,7.08
2019-04-30T10:27:20.214Z,7.45
2019-04-30T10:29:49.696Z,6.90
2019-04-30T10:32:19.300Z,7.40
2019-04-30T10:34:48.020Z,7.50
2019-04-30T10:37:18.747Z,7.72
2019-04-30T10:39:49.100Z,7.37
2019-04-30T10:42:17.735Z,7.72
2019-04-30T10:44:46.433Z,7.62
2019-04-30T10:47:15.687Z,7.58
2019-04-30T10:49:45.245Z,7.83
2019-04-30T10:52:13.872Z,8.48
2019-04-30T10:54:42.488Z,8.95
2019-04-30T10:57:11.060Z,15.35
2019-04-30T10:59:40.701Z,7.87
2019-04-30T11:02:09.444Z,7.35
2019-04-30T11:04:38.081Z,7.75
2019-04-30T11:07:08.531Z,7.30
2019-04-30T11:09:39.355Z,8.30
2019-04-30T11:12:09.509Z,7.95
2019-04-30T11:14:38.143Z,7.62
2019-04-30T11:17:07.047Z,6.78
2019-04-30T11:19:35.814Z,6.62
2019-04-30T11:22:05.694Z,7.55
2019-04-30T11:24:37.934Z,7.42
2019-04-30T11:27:05.054Z,6.87
2019-04-30T11:29:33.888Z,7.05
2019-04-30T11:32:04.466Z,7.17
2019-04-30T11:34:33.115Z,6.47
2019-04-30T11:37:01.756Z,6.78
2019-04-30T11:39:30.395Z,7.00
2019-04-30T11:41:59.117Z,6.60
2019-04-30T11:44:31.301Z,7.10
2019-04-30T11:47:01.129Z,7.62
2019-04-30T11:49:29.704Z,7.00
2019-04-30T11:51:58.298Z,7.17
2019-04-30T11:54:26.936Z,6.60
2019-04-30T11:56:55.585Z,7.35
2019-04-30T11:59:24.509Z,6.08
2019-04-30T12:01:54.705Z,6.83
2019-04-30T12:04:23.266Z,6.12
2019-04-30T12:06:53.161Z,6.30
2019-04-30T12:09:39.803Z,6.80
2019-04-30T12:12:09.137Z,6.60
2019-04-30T12:14:39.552Z,6.60
2019-04-30T12:17:08.406Z,6.35
2019-04-30T12:19:38.742Z,7.55
2019-04-30T12:22:07.198Z,6.17
2019-04-30T12:24:35.758Z,6.22
2019-04-30T12:27:04.503Z,6.45
2019-04-30T12:29:33.076Z,6.55
2019-04-30T12:32:01.664Z,7.05
2019-04-30T12:34:30.276Z,6.75
2019-04-30T12:37:00.812Z,6.50
2019-04-30T12:39:30.096Z,5.90
2019-04-30T12:41:59.855Z,6.75
2019-04-30T12:44:29.079Z,6.78
2019-04-30T12:46:58.675Z,6.58
2019-04-30T12:49:28.814Z,6.87
2019-04-30T12:52:04.818Z,7.05
2019-04-30T12:54:47.134Z,7.40
2019-04-30T12:57:29.609Z,5.78
2019-04-30T13:02:28.989Z,6.80
2019-04-30T13:05:00.443Z,6.97
2019-04-30T13:07:30.352Z,7.05
2019-04-30T13:10:01.599Z,6.92
2019-04-30T13:12:29.859Z,6.90
2019-04-30T13:14:58.634Z,5.83
2019-04-30T13:17:27.274Z,7.15
2019-04-30T13:19:55.874Z,6.67
2019-04-30T13:22:26.059Z,6.60
2019-04-30T13:24:54.789Z,7.10
2019-04-30T13:27:23.405Z,6.55
2019-04-30T13:30:09.959Z,6.70
2019-04-30T13:32:40.182Z,6.40
2019-04-30T13:35:09.350Z,6.25
2019-04-30T13:37:39.713Z,6.85
2019-04-30T13:40:10.179Z,6.60
2019-04-30T13:42:48.788Z,6.25
2019-04-30T13:45:18.686Z,6.37
2019-04-30T13:47:49.708Z,6.60
2019-04-30T13:50:19.736Z,7.78
2019-04-30T13:52:48.884Z,7.20
2019-04-30T13:55:19.226Z,7.35
2019-04-30T13:57:47.858Z,6.95
2019-04-30T14:00:21.695Z,6.97
2019-04-30T14:03:00.593Z,6.92
2019-04-30T14:05:28.265Z,7.47
2019-04-30T14:08:13.627Z,6.62
2019-04-30T14:10:44.053Z,7.45
2019-04-30T14:13:12.788Z,6.20
2019-04-30T14:15:41.901Z,6.50
2019-04-30T14:18:10.520Z,7.00
2019-04-30T14:20:39.173Z,6.42
2019-04-30T14:23:08.534Z,6.80
2019-04-30T14:25:38.049Z,7.05
2019-04-30T14:28:06.712Z,6.90
2019-04-30T14:30:35.425Z,6.92
2019-04-30T14:33:05.075Z,6.33
2019-04-30T14:35:35.821Z,7.12
2019-04-30T14:38:05.242Z,6.80
2019-04-30T14:40:34.376Z,6.80
2019-04-30T14:43:05.125Z,6.92
2019-04-30T14:45:35.873Z,6.55
2019-04-30T14:48:07.092Z,7.05
2019-04-30T14:50:40.402Z,6.90
2019-04-30T14:53:14.421Z,6.78
2019-04-30T14:56:08.718Z,6.78
2019-04-30T14:58:42.481Z,6.67
2019-04-30T15:01:19.340Z,6.50
2019-04-30T15:03:49.472Z,6.70
2019-04-30T15:06:19.376Z,7.10
2019-04-30T15:08:49.499Z,7.03
2019-04-30T15:11:19.025Z,6.80
2019-04-30T15:13:49.432Z,6.85
2019-04-30T15:16:18.215Z,6.80
2019-04-30T15:18:46.858Z,6.80
2019-04-30T15:21:16.491Z,7.28
2019-04-30T15:24:01.579Z,6.22
2019-04-30T15:26:29.153Z,6.17
2019-04-30T15:28:59.873Z,6.90
2019-04-30T15:31:29.652Z,6.80
2019-04-30T15:34:02.813Z,6.33
2019-04-30T15:36:30.224Z,6.30
2019-04-30T15:39:06.345Z,6.55
2019-04-30T15:41:34.929Z,6.70
2019-04-30T15:44:03.819Z,6.45
2019-04-30T15:46:32.843Z,7.30
2019-04-30T15:49:01.415Z,6.40
2019-04-30T15:51:30.165Z,6.17
2019-04-30T15:53:58.729Z,6.92
2019-04-30T15:56:35.258Z,6.17
2019-04-30T15:59:05.875Z,7.15
2019-04-30T16:01:34.643Z,6.50
2019-04-30T16:04:03.758Z,6.75
2019-04-30T16:06:32.342Z,6.75
2019-04-30T16:09:05.291Z,7.22
2019-04-30T16:11:41.882Z,6.22
2019-04-30T16:14:15.130Z,6.33
2019-04-30T16:16:45.502Z,6.22
2019-04-30T16:19:14.108Z,6.42
2019-04-30T16:21:43.030Z,7.05
2019-04-30T16:24:11.727Z,6.75
2019-04-30T16:26:48.986Z,6.75
2019-04-30T16:29:10.680Z,7.35
2019-04-30T16:31:39.392Z,6.50
2019-04-30T16:34:08.162Z,6.55
2019-04-30T16:36:36.726Z,6.75
2019-04-30T16:39:08.716Z,6.75
2019-04-30T16:41:40.528Z,6.50
2019-04-30T16:44:09.188Z,6.30
2019-04-30T16:46:39.526Z,6.08
2019-04-30T16:49:10.001Z,6.30
2019-04-30T16:51:38.671Z,6.10
2019-04-30T16:54:08.664Z,5.87
2019-04-30T16:56:38.658Z,5.92
2019-04-30T16:59:09.064Z,6.67
2019-04-30T17:01:37.763Z,6.08
2019-04-30T17:04:13.883Z,6.40
2019-04-30T17:06:50.013Z,6.62
2019-04-30T17:09:25.761Z,6.70
2019-04-30T17:12:02.057Z,6.62
2019-04-30T17:14:34.157Z,6.60
2019-04-30T17:17:04.749Z,6.45
2019-04-30T17:19:33.413Z,6.22
2019-04-30T17:22:02.007Z,5.85
2019-04-30T17:24:30.545Z,6.67
2019-04-30T17:26:59.354Z,6.65
2019-04-30T17:29:27.968Z,6.90
2019-04-30T17:31:56.540Z,6.67
2019-04-30T17:34:25.143Z,6.75
2019-04-30T17:36:53.703Z,6.83
2019-04-30T17:39:22.359Z,6.85
2019-04-30T17:41:50.964Z,6.92
2019-04-30T17:44:19.519Z,7.33
2019-04-30T17:46:49.717Z,7.30
2019-04-30T17:49:18.986Z,6.47
2019-04-30T17:51:49.126Z,7.00
2019-04-30T17:54:19.250Z,7.80
2019-04-30T17:56:49.207Z,7.20
2019-04-30T17:59:17.791Z,7.70
2019-04-30T18:01:56.967Z,7.17
2019-04-30T18:04:25.560Z,7.15
2019-04-30T18:06:54.589Z,7.95
2019-04-30T18:09:23.249Z,8.35
2019-04-30T18:11:51.807Z,8.35
2019-04-30T18:14:20.515Z,7.12
2019-04-30T18:16:49.157Z,7.20
2019-04-30T18:19:21.902Z,7.22
2019-04-30T18:22:01.290Z,6.85
2019-04-30T18:24:32.107Z,7.00
2019-04-30T18:27:21.248Z,6.85
2019-04-30T18:29:51.169Z,7.03
2019-04-30T18:32:21.903Z,6.87
2019-04-30T18:34:50.619Z,7.25
2019-04-30T18:37:19.223Z,7.33
2019-04-30T18:39:47.845Z,6.53
2019-04-30T18:42:16.551Z,7.12
2019-04-30T18:44:45.131Z,7.28
2019-04-30T18:47:13.851Z,7.33
2019-04-30T18:49:44.435Z,7.20
2019-04-30T18:52:13.655Z,7.20
2019-04-30T18:54:42.581Z,7.40
2019-04-30T18:57:11.341Z,7.67
2019-04-30T18:59:40.497Z,7.87
2019-04-30T19:02:10.731Z,7.50
2019-04-30T19:04:40.881Z,7.47
2019-04-30T19:07:11.573Z,7.95
2019-04-30T19:09:42.589Z,8.45
2019-04-30T19:12:13.131Z,9.15
2019-04-30T19:14:59.154Z,8.50
2019-04-30T19:17:45.747Z,8.50
2019-04-30T19:20:18.889Z,8.30
2019-04-30T19:22:47.497Z,8.30
2019-04-30T19:25:16.455Z,8.20
2019-04-30T19:27:45.281Z,8.58
2019-04-30T19:30:14.236Z,9.18
2019-04-30T19:32:43.455Z,8.00
2019-04-30T19:35:12.350Z,8.88
2019-04-30T19:37:42.074Z,9.48
2019-04-30T19:40:11.224Z,10.08
2019-04-30T19:42:40.423Z,9.83
2019-04-30T19:45:12.368Z,9.15
2019-04-30T19:47:39.744Z,9.60
2019-04-30T19:50:09.374Z,9.55
2019-04-30T19:52:38.166Z,10.00
2019-04-30T19:55:07.793Z,9.88
2019-04-30T19:57:36.736Z,9.53
2019-04-30T20:00:06.534Z,10.75
2019-04-30T20:02:35.827Z,10.48
2019-04-30T20:05:05.652Z,10.30
2019-04-30T20:07:38.267Z,9.75
2019-04-30T20:10:09.055Z,9.83
2019-04-30T20:12:38.835Z,9.90
2019-04-30T20:15:17.212Z,11.22
2019-04-30T20:17:39.176Z,11.05
2019-04-30T20:20:10.972Z,10.50
2019-04-30T20:22:39.974Z,10.55
2019-04-30T20:25:09.269Z,12.20
2019-04-30T20:27:39.628Z,11.68
2019-04-30T20:30:09.894Z,10.98
2019-04-30T20:32:39.286Z,11.68
2019-04-30T20:35:09.709Z,13.28
2019-04-30T20:37:55.903Z,11.10
2019-04-30T20:40:26.175Z,12.18
2019-04-30T20:42:54.762Z,11.88
2019-04-30T20:45:23.372Z,11.97
2019-04-30T20:47:51.936Z,11.68
2019-04-30T20:50:20.514Z,12.68
2019-04-30T20:52:49.156Z,11.97
2019-04-30T20:55:17.838Z,12.05
2019-04-30T20:57:46.403Z,12.45
2019-04-30T21:00:16.040Z,12.03
2019-04-30T21:02:44.614Z,12.75
2019-04-30T21:05:13.252Z,12.95
2019-04-30T21:07:41.893Z,12.25
2019-04-30T21:10:11.018Z,13.43
2019-04-30T21:12:40.845Z,13.58
2019-04-30T21:15:09.752Z,13.98
2019-04-30T21:17:38.322Z,14.43
2019-04-30T21:20:09.491Z,13.62
2019-04-30T21:22:38.867Z,13.68
2019-04-30T21:25:09.019Z,13.00
2019-04-30T21:27:40.128Z,13.75
2019-04-30T21:30:09.678Z,12.95
2019-04-30T21:32:56.226Z,12.93
2019-04-30T21:35:26.547Z,13.48
2019-04-30T21:37:59.043Z,13.68
2019-04-30T21:40:29.500Z,14.30
2019-04-30T21:42:57.814Z,14.23
2019-04-30T21:45:26.512Z,12.95
2019-04-30T21:47:56.356Z,12.45
2019-04-30T21:50:26.178Z,12.82
2019-04-30T21:52:54.795Z,12.78
2019-04-30T21:55:23.362Z,12.88
2019-04-30T21:57:52.000Z,13.50
2019-04-30T22:00:22.600Z,13.53
2019-04-30T22:02:51.290Z,13.32
2019-04-30T22:05:19.833Z,14.68
2019-04-30T22:07:48.649Z,13.80
2019-04-30T22:10:19.106Z,14.98
2019-04-30T22:12:48.918Z,13.88
2019-04-30T22:15:17.976Z,13.98
2019-04-30T22:17:46.655Z,14.20
2019-04-30T22:20:21.082Z,13.48
2019-04-30T22:22:49.720Z,12.95
2019-04-30T22:25:19.358Z,13.53
2019-04-30T22:27:47.988Z,13.78
2019-04-30T22:30:19.923Z,13.90
2019-04-30T22:32:49.499Z,15.45
2019-04-30T22:35:26.075Z,14.30
2019-04-30T22:37:56.393Z,14.05
2019-04-30T22:40:25.335Z,14.18
2019-04-30T22:42:55.894Z,13.15
2019-04-30T22:45:27.290Z,14.30
2019-04-30T22:47:58.737Z,15.38
2019-04-30T22:50:28.853Z,14.38
2019-04-30T22:52:59.110Z,17.73
2019-04-30T22:55:29.043Z,16.50
2019-04-30T22:57:57.661Z,16.23
2019-04-30T23:00:43.927Z,15.95
2019-04-30T23:03:14.321Z,16.50
2019-04-30T23:05:43.022Z,15.83
2019-04-30T23:08:12.878Z,16.50
2019-04-30T23:10:42.047Z,16.48
2019-04-30T23:13:11.280Z,17.00
2019-04-30T23:15:40.111Z,16.52
2019-04-30T23:18:08.795Z,16.37
2019-04-30T23:20:37.327Z,17.02
2019-04-30T23:23:06.275Z,15.08
2019-04-30T23:25:34.977Z,16.07
2019-04-30T23:28:03.602Z,16.52
2019-04-30T23:30:32.240Z,16.37
2019-04-30T23:33:00.855Z,16.45
2019-04-30T23:35:29.415Z,16.77
2019-04-30T23:37:58.361Z,15.15
2019-04-30T23:40:30.435Z,15.72
2019-04-30T23:43:00.959Z,16.25
2019-04-30T23:45:29.512Z,14.85
2019-04-30T23:47:58.105Z,17.27
2019-04-30T23:50:26.798Z,14.60
2019-04-30T23:52:56.319Z,14.05
2019-04-30T23:55:24.910Z,14.73
2019-04-30T23:57:53.497Z,14.90
